Time;durP1;ratioP1;P1;durP2;ratioP2;P2;SDS_P1;SDS_P2;PMS_P1;PMS_P2;Temp;Humidity;BMP_temperature;BMP_pressure;BME280_temperature;BME280_humidity;BME280_pressure;Samples;Min_cycle;Max_cycle;Signal;HPM_P1;HPM_P2
2021/12/27 00:00:26;;;;;;;38.50;15.97;;;-10.50;99.90;;;;;;5113053;28;20028;-76
2021/12/27 00:02:55;;;;;;;40.87;20.13;;;-10.50;99.90;;;;;;5112443;28;20081;-76
2021/12/27 00:05:21;;;;;;;46.17;22.30;;;-10.50;99.90;;;;;;5111661;28;20023;-77
2021/12/27 00:07:50;;;;;;;39.00;20.80;;;-10.40;99.90;;;;;;5111587;28;20054;-76
2021/12/27 00:10:17;;;;;;;41.47;20.70;;;-10.50;99.90;;;;;;5112801;28;20434;-76
2021/12/27 00:12:43;;;;;;;48.57;22.33;;;-10.50;99.90;;;;;;5111457;28;20504;-76
2021/12/27 00:15:09;;;;;;;57.97;21.47;;;-10.50;99.90;;;;;;5111378;28;20019;-76
2021/12/27 00:17:36;;;;;;;60.23;22.00;;;-10.50;99.90;;;;;;5094685;28;20027;-76
2021/12/27 00:20:03;;;;;;;45.57;18.97;;;-10.50;99.90;;;;;;5090963;28;20401;-75
2021/12/27 00:22:28;;;;;;;59.30;21.60;;;-10.60;99.90;;;;;;5092235;28;20020;-76
2021/12/27 00:24:54;;;;;;;51.83;22.00;;;-10.50;99.90;;;;;;5100450;28;20015;-76
2021/12/27 00:27:19;;;;;;;54.77;24.73;;;-10.60;99.90;;;;;;5111540;28;20023;-75
2021/12/27 00:29:45;;;;;;;38.93;16.30;;;-10.60;99.90;;;;;;5112658;28;20100;-75
2021/12/27 00:32:11;;;;;;;42.70;21.47;;;-10.60;99.90;;;;;;5111161;28;20024;-76
2021/12/27 00:34:37;;;;;;;52.67;21.40;;;-10.60;99.90;;;;;;5112333;28;20023;-76
2021/12/27 00:37:04;;;;;;;55.37;23.03;;;-10.70;99.90;;;;;;5091960;28;20470;-76
2021/12/27 00:39:30;;;;;;;54.33;22.80;;;-10.70;99.90;;;;;;5090514;28;20024;-76
2021/12/27 00:41:56;;;;;;;52.07;18.37;;;-10.70;99.90;;;;;;5091997;28;20020;-76
2021/12/27 00:44:22;;;;;;;62.93;23.23;;;-10.70;99.90;;;;;;5092122;28;20375;-76
2021/12/27 00:46:47;;;;;;;47.90;19.80;;;-10.60;99.90;;;;;;5090608;28;20024;-76
2021/12/27 00:49:13;;;;;;;51.17;20.47;;;-10.70;99.90;;;;;;5091668;28;20111;-75
2021/12/27 00:51:38;;;;;;;56.63;21.03;;;-10.60;99.90;;;;;;5090483;28;20026;-76
2021/12/27 00:54:04;;;;;;;47.00;21.37;;;-10.60;99.90;;;;;;5091726;28;20099;-76
2021/12/27 00:56:30;;;;;;;48.10;20.37;;;-10.50;99.90;;;;;;5091692;28;20367;-77
2021/12/27 00:58:55;;;;;;;46.20;20.00;;;-10.40;99.90;;;;;;5090440;28;20043;-76
2021/12/27 01:01:21;;;;;;;52.70;21.20;;;-10.40;99.90;;;;;;5108830;28;20027;-76
2021/12/27 01:03:46;;;;;;;49.40;19.90;;;-10.30;99.90;;;;;;5111983;28;20496;-77
2021/12/27 01:06:12;;;;;;;39.73;17.80;;;-10.40;99.90;;;;;;5111818;28;20046;-76
2021/12/27 01:08:38;;;;;;;36.37;16.93;;;-10.30;99.90;;;;;;5110432;28;20038;-76
2021/12/27 01:18:34;;;;;;;40.38;16.33;;;-10.30;99.90;;;;;;5112123;28;20034;-76
2021/12/27 01:21:00;;;;;;;37.53;18.97;;;-10.30;99.90;;;;;;5111802;28;20040;-75
2021/12/27 01:23:26;;;;;;;47.43;17.07;;;-10.30;99.90;;;;;;5111705;28;20023;-77
2021/12/27 01:25:51;;;;;;;33.83;16.07;;;-10.30;99.90;;;;;;5110364;28;20542;-76
2021/12/27 01:28:19;;;;;;;52.83;20.77;;;-10.20;99.90;;;;;;5110282;28;20032;-76
2021/12/27 01:30:49;;;;;;;39.93;16.87;;;-10.20;99.90;;;;;;5110328;28;20016;-76
2021/12/27 01:33:17;;;;;;;41.23;19.03;;;-10.20;99.90;;;;;;5110441;28;20016;-76
2021/12/27 01:35:44;;;;;;;46.90;19.97;;;-10.20;99.90;;;;;;5110282;28;20016;-76
2021/12/27 01:38:12;;;;;;;36.40;16.70;;;-10.20;99.90;;;;;;5110195;28;20419;-76
2021/12/27 01:40:39;;;;;;;41.53;17.03;;;-10.30;99.90;;;;;;5111552;28;20065;-76
2021/12/27 01:43:09;;;;;;;40.77;15.90;;;-10.30;99.90;;;;;;5111513;28;20024;-76
2021/12/27 01:45:39;;;;;;;46.70;18.37;;;-10.30;99.90;;;;;;5110261;28;20027;-76
2021/12/27 01:48:07;;;;;;;40.67;17.03;;;-10.30;99.90;;;;;;5110419;28;20032;-76
2021/12/27 01:50:35;;;;;;;47.57;19.30;;;-10.30;99.90;;;;;;5110097;28;20016;-76
2021/12/27 01:53:01;;;;;;;30.60;14.20;;;-10.30;99.90;;;;;;5110259;28;20217;-76
2021/12/27 01:55:27;;;;;;;53.53;20.13;;;-10.30;99.90;;;;;;5110084;28;20113;-76
2021/12/27 01:57:53;;;;;;;33.63;16.73;;;-10.20;99.90;;;;;;5110172;28;20058;-76
2021/12/27 02:00:18;;;;;;;45.27;16.90;;;-10.20;99.90;;;;;;5110046;28;20136;-76
2021/12/27 02:02:45;;;;;;;54.90;21.70;;;-10.20;99.90;;;;;;5110132;28;20303;-76
2021/12/27 02:05:13;;;;;;;47.60;20.67;;;-10.20;99.90;;;;;;5111284;28;20058;-76
2021/12/27 02:07:39;;;;;;;43.33;16.83;;;-10.20;99.90;;;;;;5111245;28;20024;-75
2021/12/27 02:10:05;;;;;;;41.47;16.97;;;-10.20;99.90;;;;;;5111323;28;20061;-76
2021/12/27 02:12:32;;;;;;;58.33;17.83;;;-10.20;99.90;;;;;;5109932;28;20026;-76
2021/12/27 02:14:58;;;;;;;45.83;18.13;;;-10.20;99.90;;;;;;5109911;28;20098;-75
2021/12/27 02:17:24;;;;;;;39.77;17.23;;;-10.20;99.90;;;;;;5111257;28;20045;-76
2021/12/27 02:19:52;;;;;;;43.90;19.87;;;-10.20;99.90;;;;;;5109869;28;20055;-76
2021/12/27 02:22:18;;;;;;;39.67;17.77;;;-10.30;99.90;;;;;;5111255;28;20027;-76
2021/12/27 02:24:43;;;;;;;35.20;14.30;;;-10.20;99.90;;;;;;5110786;28;20523;-76
2021/12/27 02:27:13;;;;;;;32.50;16.03;;;-10.20;99.90;;;;;;5113609;28;20457;-76
2021/12/27 02:29:39;;;;;;;32.40;15.20;;;-10.10;99.90;;;;;;5113378;28;20031;-76
2021/12/27 02:32:06;;;;;;;41.30;16.00;;;-10.10;99.90;;;;;;5113503;28;20497;-76
2021/12/27 02:34:32;;;;;;;24.80;13.53;;;-10.00;99.90;;;;;;5113366;28;20059;-76
2021/12/27 02:36:58;;;;;;;41.33;16.53;;;-10.00;99.90;;;;;;5113429;28;20437;-76
2021/12/27 02:39:25;;;;;;;27.73;15.17;;;-10.00;99.90;;;;;;5113685;28;20019;-76
2021/12/27 02:41:51;;;;;;;31.27;13.47;;;-9.90;99.90;;;;;;5113377;28;20020;-76
2021/12/27 02:44:17;;;;;;;42.83;17.67;;;-9.90;99.90;;;;;;5113302;28;20031;-76
2021/12/27 02:46:43;;;;;;;28.80;14.37;;;-9.90;99.90;;;;;;5113213;28;20026;-75
2021/12/27 02:49:09;;;;;;;32.50;16.23;;;-9.90;99.90;;;;;;5112932;28;20040;-76
2021/12/27 02:51:35;;;;;;;31.73;14.67;;;-9.90;99.90;;;;;;5114438;28;20044;-76
2021/12/27 02:54:01;;;;;;;35.70;15.60;;;-9.80;99.90;;;;;;5114408;28;20027;-76
2021/12/27 02:56:29;;;;;;;40.30;19.33;;;-9.80;99.90;;;;;;5113031;28;20027;-76
2021/12/27 02:58:56;;;;;;;41.10;16.97;;;-9.80;99.90;;;;;;5114309;28;20044;-76
2021/12/27 03:01:23;;;;;;;26.77;14.00;;;-9.80;99.90;;;;;;5112858;28;20466;-76
2021/12/27 03:03:49;;;;;;;36.23;19.03;;;-9.80;99.90;;;;;;5113049;28;20489;-76
2021/12/27 03:06:15;;;;;;;34.97;16.73;;;-9.80;99.90;;;;;;5114117;28;20023;-76
2021/12/27 03:08:42;;;;;;;29.07;13.13;;;-9.90;99.90;;;;;;5112728;28;20036;-76
2021/12/27 03:11:10;;;;;;;36.13;15.70;;;-9.90;99.90;;;;;;5112673;28;20062;-76
2021/12/27 03:13:38;;;;;;;42.03;20.60;;;-9.90;99.90;;;;;;5112684;28;20020;-76
2021/12/27 03:16:10;;;;;;;49.03;20.53;;;-10.00;99.90;;;;;;5113958;28;20031;-76
2021/12/27 03:18:38;;;;;;;36.67;16.55;;;-10.00;99.90;;;;;;5112702;28;20122;-76
2021/12/27 03:21:05;;;;;;;27.37;14.07;;;-10.00;99.90;;;;;;5112579;28;20016;-75
2021/12/27 03:23:32;;;;;;;41.20;16.97;;;-10.00;99.90;;;;;;5112477;28;20026;-76
2021/12/27 03:25:58;;;;;;;36.07;17.37;;;-10.00;99.90;;;;;;5113813;28;20413;-76
2021/12/27 03:28:23;;;;;;;48.93;19.57;;;-10.00;99.90;;;;;;5112299;28;20040;-76
2021/12/27 03:30:50;;;;;;;51.93;22.10;;;-10.00;99.90;;;;;;5113627;28;20104;-76
2021/12/27 03:33:19;;;;;;;35.57;15.63;;;-10.10;99.90;;;;;;5113963;28;20102;-76
2021/12/27 03:35:58;;;;;;;46.93;19.10;;;-10.10;99.90;;;;;;5112822;28;20485;-76
2021/12/27 03:38:24;;;;;;;41.27;18.03;;;-10.20;99.90;;;;;;5113425;28;20028;-76
2021/12/27 03:40:50;;;;;;;52.03;19.63;;;-10.20;99.90;;;;;;5112041;28;20443;-77
2021/12/27 03:43:16;;;;;;;47.47;21.80;;;-10.20;99.90;;;;;;5112072;28;20040;-76
2021/12/27 03:45:42;;;;;;;43.70;18.90;;;-10.30;99.90;;;;;;5112028;28;20022;-76
2021/12/27 03:48:09;;;;;;;41.33;17.87;;;-10.30;99.90;;;;;;5111991;28;20181;-76
2021/12/27 03:50:35;;;;;;;33.67;17.13;;;-10.40;99.90;;;;;;5111859;28;20020;-76
2021/12/27 03:53:01;;;;;;;48.20;19.93;;;-10.40;99.90;;;;;;5113304;28;20079;-76
2021/12/27 03:55:27;;;;;;;51.67;22.03;;;-10.40;99.90;;;;;;5113047;28;20028;-75
2021/12/27 03:57:56;;;;;;;49.10;19.70;;;-10.40;99.90;;;;;;5111861;28;20023;-77
2021/12/27 04:02:53;;;;;;;34.73;17.30;;;-10.50;99.90;;;;;;5113066;27;20406;-76
2021/12/27 04:05:19;;;;;;;46.53;17.07;;;-10.60;99.90;;;;;;5112985;28;20024;-76
2021/12/27 04:07:48;;;;;;;30.60;18.17;;;-10.60;99.90;;;;;;5112764;28;20027;-76
2021/12/27 04:10:14;;;;;;;44.10;21.70;;;-10.70;99.90;;;;;;5111559;28;20020;-76
2021/12/27 04:12:40;;;;;;;50.90;23.70;;;-10.80;99.90;;;;;;5097113;28;20032;-76
2021/12/27 04:15:09;;;;;;;61.33;26.73;;;-10.80;99.90;;;;;;5106547;28;20392;-76
2021/12/27 04:17:35;;;;;;;36.20;16.67;;;-10.90;99.90;;;;;;5101245;28;20381;-76
2021/12/27 04:20:02;;;;;;;53.30;21.70;;;-10.90;99.90;;;;;;5090937;28;20050;-76
2021/12/27 04:22:27;;;;;;;46.40;18.73;;;-10.90;99.90;;;;;;5090948;28;20030;-76
2021/12/27 04:24:53;;;;;;;56.97;26.20;;;-10.90;99.90;;;;;;5100039;28;20027;-76
2021/12/27 04:27:20;;;;;;;55.43;21.47;;;-10.90;99.90;;;;;;5111582;28;20019;-76
2021/12/27 04:29:46;;;;;;;50.60;22.20;;;-10.90;99.90;;;;;;5110832;28;20058;-76
2021/12/27 04:32:12;;;;;;;44.70;22.63;;;-10.90;99.90;;;;;;5111225;28;20507;-77
2021/12/27 04:34:37;;;;;;;47.67;22.70;;;-11.00;99.90;;;;;;5110999;28;20028;-76
2021/12/27 04:37:03;;;;;;;48.80;23.47;;;-10.90;99.90;;;;;;5111166;28;20030;-76
2021/12/27 04:39:29;;;;;;;70.57;24.70;;;-10.90;99.90;;;;;;5110890;28;20027;-76
2021/12/27 04:41:55;;;;;;;49.90;24.37;;;-10.90;99.90;;;;;;5111089;28;20023;-77
2021/12/27 04:44:21;;;;;;;60.50;25.13;;;-10.80;99.90;;;;;;5112049;28;20035;-76
2021/12/27 04:46:46;;;;;;;50.00;23.63;;;-10.80;99.90;;;;;;5105402;28;20034;-77
2021/12/27 04:49:12;;;;;;;56.27;22.93;;;-10.80;99.90;;;;;;5090156;28;20032;-75
2021/12/27 04:51:38;;;;;;;54.00;23.53;;;-10.80;99.90;;;;;;5090539;28;20023;-76
2021/12/27 04:54:03;;;;;;;50.37;23.17;;;-10.80;99.90;;;;;;5090734;28;20031;-75
2021/12/27 04:56:29;;;;;;;55.07;20.93;;;-10.80;99.90;;;;;;5090677;28;20016;-77
2021/12/27 04:58:55;;;;;;;65.93;24.30;;;-10.80;99.90;;;;;;5091663;28;20493;-75
2021/12/27 05:01:22;;;;;;;47.13;20.67;;;-10.80;99.90;;;;;;5090455;28;20115;-76
2021/12/27 05:03:47;;;;;;;41.40;18.10;;;-10.90;99.90;;;;;;5090364;28;20024;-76
2021/12/27 05:06:13;;;;;;;38.93;19.77;;;-10.90;99.90;;;;;;5090227;28;20031;-77
2021/12/27 05:08:40;;;;;;;36.27;17.93;;;-10.90;99.90;;;;;;5087507;28;20036;-76
2021/12/27 05:11:07;;;;;;;56.13;23.93;;;-11.00;99.90;;;;;;5090146;28;20473;-76
2021/12/27 05:13:33;;;;;;;38.83;19.23;;;-11.00;99.90;;;;;;5090105;28;20020;-76
2021/12/27 05:16:00;;;;;;;42.67;16.00;;;-11.10;99.90;;;;;;5091729;28;20020;-75
2021/12/27 05:18:26;;;;;;;46.17;18.80;;;-11.10;99.90;;;;;;5091330;28;20020;-77
2021/12/27 05:20:53;;;;;;;46.53;18.83;;;-11.10;99.90;;;;;;5090080;28;20089;-76
2021/12/27 05:23:18;;;;;;;46.23;19.40;;;-11.10;99.90;;;;;;5089997;28;20016;-76
2021/12/27 05:25:44;;;;;;;47.33;18.83;;;-11.20;99.90;;;;;;5091191;28;20031;-76
2021/12/27 05:28:10;;;;;;;39.50;17.10;;;-11.20;99.90;;;;;;5091370;28;20107;-76
2021/12/27 05:30:37;;;;;;;30.60;15.03;;;-11.20;99.90;;;;;;5090888;28;20085;-76
2021/12/27 05:33:03;;;;;;;34.83;15.57;;;-11.20;99.90;;;;;;5090033;28;20012;-77
2021/12/27 05:35:28;;;;;;;30.30;15.37;;;-11.20;99.90;;;;;;5089805;28;20473;-76
2021/12/27 05:37:54;;;;;;;46.70;18.27;;;-11.20;99.90;;;;;;5089682;28;20013;-76
2021/12/27 05:40:22;;;;;;;38.90;17.87;;;-11.20;99.90;;;;;;5089922;28;20024;-76
2021/12/27 05:42:50;;;;;;;44.17;17.03;;;-11.20;99.90;;;;;;5089937;28;20370;-76
2021/12/27 05:45:16;;;;;;;33.00;16.10;;;-11.30;99.90;;;;;;5090889;28;20028;-76
2021/12/27 05:47:42;;;;;;;32.80;16.23;;;-11.20;99.90;;;;;;5088297;28;20028;-76
2021/12/27 05:50:08;;;;;;;43.40;14.83;;;-11.20;99.90;;;;;;5089640;28;20024;-76
2021/12/27 05:52:34;;;;;;;43.80;16.43;;;-11.20;99.90;;;;;;5089219;28;20582;-75
2021/12/27 05:55:00;;;;;;;34.50;16.73;;;-11.10;99.90;;;;;;5087788;28;20077;-76
2021/12/27 05:57:25;;;;;;;31.60;13.93;;;-11.10;99.90;;;;;;5087642;28;20069;-77
2021/12/27 05:59:51;;;;;;;44.13;17.33;;;-11.00;99.90;;;;;;5090489;28;20020;-76
2021/12/27 06:02:17;;;;;;;31.63;14.13;;;-10.90;99.90;;;;;;5106776;28;20031;-77
2021/12/27 06:04:42;;;;;;;39.27;13.87;;;-10.90;99.90;;;;;;5093518;28;20032;-75
2021/12/27 06:07:08;;;;;;;34.40;16.53;;;-10.90;99.90;;;;;;5102949;28;20020;-77
2021/12/27 06:09:33;;;;;;;38.90;15.33;;;-10.90;99.90;;;;;;5110081;28;20038;-75
2021/12/27 06:11:59;;;;;;;35.10;16.13;;;-10.80;99.90;;;;;;5110279;28;20016;-76
2021/12/27 06:14:25;;;;;;;29.17;14.53;;;-10.70;99.90;;;;;;5099655;28;20571;-76
2021/12/27 06:16:50;;;;;;;29.93;12.17;;;-10.60;99.90;;;;;;5112951;28;20477;-76
2021/12/27 06:19:17;;;;;;;37.03;15.90;;;-10.60;99.90;;;;;;5113386;28;20028;-76
2021/12/27 06:21:43;;;;;;;40.90;15.03;;;-10.50;99.90;;;;;;5113572;28;20084;-76
2021/12/27 06:24:08;;;;;;;41.83;17.03;;;-10.50;99.90;;;;;;5108094;28;20020;-76
2021/12/27 06:26:34;;;;;;;35.67;15.27;;;-10.40;99.90;;;;;;5094419;28;20024;-77
2021/12/27 06:28:59;;;;;;;34.77;16.30;;;-10.40;99.90;;;;;;5093102;28;20039;-76
2021/12/27 06:31:25;;;;;;;39.67;14.57;;;-10.40;99.90;;;;;;5094123;28;20039;-77
2021/12/27 06:33:51;;;;;;;29.63;13.40;;;-10.30;99.90;;;;;;5092818;28;20024;-76
2021/12/27 06:36:16;;;;;;;38.57;16.30;;;-10.20;99.90;;;;;;5093026;28;20031;-77
2021/12/27 06:38:42;;;;;;;28.17;13.87;;;-10.20;99.90;;;;;;5094225;28;20026;-76
2021/12/27 06:41:09;;;;;;;27.07;14.73;;;-10.20;99.90;;;;;;5092761;28;20099;-76
2021/12/27 06:43:34;;;;;;;29.17;12.70;;;-10.20;99.90;;;;;;5092752;28;20377;-76
2021/12/27 06:46:00;;;;;;;32.63;15.73;;;-10.20;99.90;;;;;;5094187;28;20086;-76
2021/12/27 06:48:26;;;;;;;44.37;15.40;;;-10.20;99.90;;;;;;5114282;28;20076;-76
2021/12/27 06:50:52;;;;;;;32.90;13.47;;;-10.20;99.90;;;;;;5112971;28;20075;-76
2021/12/27 06:53:19;;;;;;;25.17;14.13;;;-10.20;99.90;;;;;;5113080;28;20020;-76
2021/12/27 06:55:46;;;;;;;35.33;14.03;;;-10.10;99.90;;;;;;5114485;28;20315;-76
2021/12/27 06:58:13;;;;;;;28.60;11.73;;;-10.10;99.90;;;;;;5110150;28;20027;-76
2021/12/27 07:00:39;;;;;;;30.57;13.33;;;-10.10;99.90;;;;;;5099399;28;20028;-76
2021/12/27 07:03:05;;;;;;;28.27;12.93;;;-10.00;99.90;;;;;;5099282;27;20020;-76
2021/12/27 07:05:31;;;;;;;33.83;15.10;;;-10.00;99.90;;;;;;5099463;28;20111;-76
2021/12/27 07:07:57;;;;;;;32.40;14.53;;;-10.00;99.90;;;;;;5098245;28;20024;-76
2021/12/27 07:10:23;;;;;;;26.70;11.67;;;-9.90;99.90;;;;;;5101306;28;20439;-76
2021/12/27 07:12:49;;;;;;;22.73;12.57;;;-9.90;99.90;;;;;;5098942;28;20020;-76
2021/12/27 07:15:16;;;;;;;30.20;13.30;;;-9.80;99.90;;;;;;5101584;28;20036;-75
2021/12/27 07:17:41;;;;;;;34.07;14.03;;;-9.80;99.90;;;;;;5093779;28;20112;-76
2021/12/27 07:20:08;;;;;;;20.07;9.00;;;-9.70;99.90;;;;;;5099470;28;20111;-76
2021/12/27 07:22:34;;;;;;;21.30;11.37;;;-9.60;99.90;;;;;;5096523;28;20032;-76
2021/12/27 07:25:00;;;;;;;29.83;13.27;;;-9.60;99.90;;;;;;5095169;28;20016;-76
2021/12/27 07:27:25;;;;;;;24.07;12.80;;;-9.60;99.90;;;;;;5097847;28;20032;-76
2021/12/27 07:29:51;;;;;;;24.87;13.53;;;-9.50;99.90;;;;;;5100840;28;20068;-76
2021/12/27 07:32:17;;;;;;;21.20;10.60;;;-9.50;99.90;;;;;;5098102;28;20035;-76
2021/12/27 07:34:43;;;;;;;39.23;15.90;;;-9.50;99.90;;;;;;5099819;28;20098;-76
2021/12/27 07:37:09;;;;;;;35.90;14.20;;;-9.40;99.90;;;;;;5094210;28;20036;-76
2021/12/27 07:39:35;;;;;;;23.80;12.37;;;-9.40;99.90;;;;;;5094511;28;20063;-76
2021/12/27 07:42:01;;;;;;;22.10;11.50;;;-9.30;99.90;;;;;;5097845;27;20555;-76
2021/12/27 07:44:27;;;;;;;29.87;14.43;;;-9.30;99.90;;;;;;5095262;28;20031;-76
2021/12/27 07:46:52;;;;;;;30.67;15.03;;;-9.20;99.90;;;;;;5097807;28;20039;-76
2021/12/27 07:49:18;;;;;;;32.43;13.73;;;-9.20;99.90;;;;;;5097237;28;20032;-76
2021/12/27 07:51:45;;;;;;;28.93;12.33;;;-9.20;99.90;;;;;;5093238;28;20073;-76
2021/12/27 07:54:11;;;;;;;29.20;13.67;;;-9.10;99.90;;;;;;5097523;28;20027;-76
2021/12/27 07:56:37;;;;;;;39.90;14.87;;;-9.00;99.90;;;;;;5102854;28;20089;-76
2021/12/27 07:59:04;;;;;;;31.63;16.93;;;-9.00;99.90;;;;;;5097302;28;20013;-76
2021/12/27 08:01:35;;;;;;;33.13;14.80;;;-9.00;99.90;;;;;;5098710;28;20039;-76
2021/12/27 08:04:02;;;;;;;29.30;12.03;;;-9.00;99.90;;;;;;5101737;28;20159;-76
2021/12/27 08:06:28;;;;;;;41.70;17.37;;;-8.90;99.90;;;;;;5091916;28;20044;-76
2021/12/27 08:08:54;;;;;;;41.80;17.87;;;-8.90;99.90;;;;;;5103449;28;20035;-76
2021/12/27 08:11:20;;;;;;;41.40;15.93;;;-8.80;99.90;;;;;;5093014;28;20028;-77
2021/12/27 08:13:46;;;;;;;36.43;17.77;;;-8.80;99.90;;;;;;5096673;28;20546;-76
2021/12/27 08:16:12;;;;;;;33.33;15.63;;;-8.80;99.90;;;;;;5096203;28;20533;-76
2021/12/27 08:18:41;;;;;;;33.73;14.93;;;-8.80;99.90;;;;;;5093786;28;20024;-77
2021/12/27 08:21:07;;;;;;;29.20;13.77;;;-8.80;99.90;;;;;;5098150;28;20020;-77
2021/12/27 08:23:32;;;;;;;40.17;19.27;;;-8.70;99.90;;;;;;5095818;28;20406;-77
2021/12/27 08:25:58;;;;;;;49.40;17.30;;;-8.70;99.90;;;;;;5095864;28;20114;-76
2021/12/27 08:28:24;;;;;;;40.33;17.40;;;-8.60;99.90;;;;;;5096193;28;20028;-77
2021/12/27 08:30:49;;;;;;;42.80;19.27;;;-8.60;99.90;;;;;;5093112;28;20032;-76
2021/12/27 08:33:15;;;;;;;32.27;16.07;;;-8.50;99.90;;;;;;5094753;28;20024;-76
2021/12/27 08:35:41;;;;;;;41.53;18.90;;;-8.50;99.90;;;;;;5096636;28;20031;-76
2021/12/27 08:38:07;;;;;;;34.37;15.07;;;-8.50;99.90;;;;;;5094415;28;20027;-76
2021/12/27 08:40:32;;;;;;;31.37;14.53;;;-8.50;99.90;;;;;;5099548;28;20065;-77
2021/12/27 08:42:58;;;;;;;40.77;16.03;;;-8.50;99.90;;;;;;5100458;28;20039;-76
2021/12/27 08:45:24;;;;;;;26.93;13.13;;;-8.50;99.90;;;;;;5097566;28;20413;-76
2021/12/27 08:47:50;;;;;;;32.17;15.00;;;-8.40;99.90;;;;;;5091625;28;20032;-76
2021/12/27 08:50:17;;;;;;;26.97;14.20;;;-8.40;99.90;;;;;;5090659;28;20350;-76
2021/12/27 08:52:44;;;;;;;37.93;17.20;;;-8.40;99.90;;;;;;5091697;28;20085;-76
2021/12/27 08:55:11;;;;;;;34.00;16.93;;;-8.40;99.90;;;;;;5093240;28;20012;-75
2021/12/27 08:57:37;;;;;;;32.63;15.33;;;-8.30;99.90;;;;;;5099109;28;20031;-76
2021/12/27 09:00:07;;;;;;;30.83;14.63;;;-8.30;99.90;;;;;;5095510;28;20460;-77
2021/12/27 09:02:34;;;;;;;39.57;15.77;;;-8.20;99.90;;;;;;5102992;28;20039;-78
2021/12/27 09:05:00;;;;;;;33.13;16.70;;;-8.20;99.90;;;;;;5094583;28;20078;-77
2021/12/27 09:07:25;;;;;;;33.27;12.90;;;-8.20;99.90;;;;;;5094548;28;20036;-77
2021/12/27 09:09:51;;;;;;;45.40;16.07;;;-8.10;99.90;;;;;;5097868;28;20040;-77
2021/12/27 09:12:16;;;;;;;32.03;16.43;;;-8.10;99.90;;;;;;5090916;28;20039;-77
2021/12/27 09:14:42;;;;;;;39.53;13.53;;;-8.10;99.90;;;;;;5093235;28;20024;-77
2021/12/27 09:17:08;;;;;;;33.03;13.60;;;-8.10;99.90;;;;;;5100240;28;20455;-77
2021/12/27 09:19:33;;;;;;;27.97;12.10;;;-8.00;99.90;;;;;;5094315;28;20544;-77
2021/12/27 09:22:00;;;;;;;33.03;13.90;;;-8.10;99.90;;;;;;5106401;28;20097;-77
2021/12/27 09:24:26;;;;;;;35.53;13.33;;;-8.00;99.90;;;;;;5108782;28;20414;-77
2021/12/27 09:26:51;;;;;;;29.20;13.37;;;-8.00;99.90;;;;;;5086974;28;20160;-78
2021/12/27 09:29:17;;;;;;;27.73;10.97;;;-7.90;99.90;;;;;;5089553;28;20032;-76
2021/12/27 09:31:43;;;;;;;34.80;13.77;;;-7.90;99.90;;;;;;5104256;28;20028;-77
2021/12/27 09:34:08;;;;;;;28.03;11.93;;;-7.90;99.90;;;;;;5107271;28;20016;-76
2021/12/27 09:36:34;;;;;;;30.87;14.40;;;-7.90;99.90;;;;;;5112158;28;20047;-77
2021/12/27 09:39:05;;;;;;;28.97;13.83;;;-7.90;99.90;;;;;;5111780;28;20489;-77
2021/12/27 09:41:31;;;;;;;22.13;11.70;;;-7.90;99.90;;;;;;5093123;28;20072;-77
2021/12/27 09:43:56;;;;;;;36.30;15.27;;;-7.90;99.90;;;;;;5101434;28;20111;-77
2021/12/27 09:46:22;;;;;;;24.03;12.67;;;-7.80;99.90;;;;;;5114380;28;20028;-77
2021/12/27 09:48:51;;;;;;;33.63;14.80;;;-7.80;99.90;;;;;;5111277;28;20036;-77
2021/12/27 09:51:16;;;;;;;26.20;13.07;;;-7.70;99.90;;;;;;5108976;28;20020;-77
2021/12/27 09:53:42;;;;;;;30.70;14.47;;;-7.70;99.90;;;;;;5112769;28;20180;-76
2021/12/27 09:56:09;;;;;;;29.70;12.27;;;-7.70;99.90;;;;;;5112747;28;20034;-77
2021/12/27 09:58:35;;;;;;;28.90;12.77;;;-7.60;99.90;;;;;;5095836;28;20382;-76
2021/12/27 10:01:03;;;;;;;33.67;12.30;;;-7.60;99.90;;;;;;5113908;28;20016;-76
2021/12/27 10:03:30;;;;;;;37.40;15.40;;;-7.50;99.90;;;;;;5112535;28;20024;-76
2021/12/27 10:06:11;;;;;;;44.83;17.80;;;-7.60;99.90;;;;;;5121996;27;20028;-75
2021/12/27 10:08:37;;;;;;;46.73;18.27;;;-7.50;99.90;;;;;;5113615;28;20138;-76
2021/12/27 10:11:02;;;;;;;41.07;16.47;;;-7.50;99.90;;;;;;5112275;28;20577;-76
2021/12/27 10:13:29;;;;;;;52.67;20.23;;;-7.60;99.90;;;;;;5108738;28;20036;-76
2021/12/27 10:15:55;;;;;;;53.05;21.08;;;-7.60;99.90;;;;;;5100481;28;20063;-75
2021/12/27 10:18:22;;;;;;;41.42;19.08;;;-7.60;99.90;;;;;;5099477;28;20035;-76
2021/12/27 10:20:48;;;;;;;38.55;15.85;;;-7.60;99.90;;;;;;5108486;27;20043;-76
2021/12/27 10:23:18;;;;;;;46.47;20.57;;;-7.60;99.90;;;;;;5092746;28;20090;-76
2021/12/27 10:25:47;;;;;;;37.13;18.02;;;-7.50;99.90;;;;;;5091116;28;20051;-75
2021/12/27 10:28:12;;;;;;;48.25;18.13;;;-7.50;99.90;;;;;;5105396;28;20075;-76
2021/12/27 10:30:44;;;;;;;37.77;15.17;;;-7.40;99.90;;;;;;5103995;28;20044;-77
2021/12/27 10:33:14;;;;;;;37.15;17.75;;;-7.40;99.90;;;;;;5094266;28;20032;-76
2021/12/27 10:35:46;;;;;;;34.60;14.90;;;-7.30;99.90;;;;;;5092273;28;20032;-75
2021/12/27 10:38:17;;;;;;;29.40;13.27;;;-7.30;99.90;;;;;;5096817;28;20472;-75
2021/12/27 10:40:50;;;;;;;47.27;17.93;;;-7.40;99.90;;;;;;5094646;28;20163;-75
2021/12/27 10:43:18;;;;;;;45.67;17.20;;;-7.40;99.90;;;;;;5099379;28;20039;-75
2021/12/27 10:45:47;;;;;;;44.33;17.90;;;-7.30;99.90;;;;;;5099308;28;20141;-75
2021/12/27 10:48:20;;;;;;;36.93;17.67;;;-7.30;99.90;;;;;;5098264;28;20040;-77
2021/12/27 10:50:47;;;;;;;42.42;18.50;;;-7.40;99.90;;;;;;5099857;28;20036;-76
2021/12/27 10:53:15;;;;;;;36.75;17.30;;;-7.30;99.90;;;;;;5095995;28;20036;-75
2021/12/27 10:55:47;;;;;;;39.35;16.27;;;-7.40;99.90;;;;;;5094566;28;20028;-76
2021/12/27 10:58:23;;;;;;;37.65;16.75;;;-7.40;99.90;;;;;;5096148;28;20040;-76
2021/12/27 11:01:00;;;;;;;38.28;18.67;;;-7.50;99.90;;;;;;5094425;28;20034;-76
2021/12/27 11:03:40;;;;;;;43.17;16.63;;;-7.60;99.90;;;;;;5095465;28;20119;-76
2021/12/27 11:06:07;;;;;;;39.38;16.88;;;-7.70;99.90;;;;;;5093970;28;20028;-76
2021/12/27 11:08:35;;;;;;;36.92;17.73;;;-7.70;99.90;;;;;;5096417;28;20043;-76
2021/12/27 11:11:06;;;;;;;45.03;19.40;;;-7.80;99.90;;;;;;5096464;28;20016;-76
2021/12/27 11:13:34;;;;;;;71.00;26.70;;;-7.80;99.90;;;;;;5088656;28;20056;-75
2021/12/27 11:16:02;;;;;;;130.63;46.07;;;-7.80;99.90;;;;;;5094898;27;20377;-77
2021/12/27 11:18:28;;;;;;;85.90;34.17;;;-7.80;99.90;;;;;;5098501;28;20031;-76
2021/12/27 11:21:00;;;;;;;72.83;33.17;;;-7.90;99.90;;;;;;5100520;28;20090;-76
2021/12/27 11:23:28;;;;;;;90.00;36.53;;;-7.90;99.90;;;;;;5096775;28;20405;-77
2021/12/27 11:26:06;;;;;;;125.70;50.20;;;-7.90;99.90;;;;;;5093672;28;20055;-76
2021/12/27 11:28:37;;;;;;;99.67;41.73;;;-7.70;99.90;;;;;;5099282;28;20044;-76
2021/12/27 11:31:13;;;;;;;65.53;29.03;;;-7.80;99.90;;;;;;5097679;28;20442;-76
2021/12/27 11:33:59;;;;;;;100.07;36.00;;;-7.90;99.90;;;;;;5103107;28;20058;-77
2021/12/27 11:36:36;;;;;;;75.50;31.43;;;-7.90;99.90;;;;;;5087462;28;20048;-76
2021/12/27 11:39:25;;;;;;;66.37;29.53;;;-8.00;99.90;;;;;;5097197;28;20381;-76
2021/12/27 11:42:12;;;;;;;90.47;32.53;;;-8.10;99.90;;;;;;5096340;28;20058;-76
2021/12/27 11:45:04;;;;;;;98.40;42.87;;;-8.20;99.90;;;;;;5091539;28;20067;-76
2021/12/27 11:47:32;;;;;;;72.97;31.80;;;-7.90;99.90;;;;;;5089187;28;20036;-76
2021/12/27 11:50:01;;;;;;;94.27;37.23;;;-7.90;99.90;;;;;;5087431;28;20067;-77
2021/12/27 11:52:31;;;;;;;89.20;36.07;;;-7.90;99.90;;;;;;5096187;28;20030;-77
2021/12/27 11:55:03;;;;;;;98.23;38.33;;;-7.90;99.90;;;;;;5096079;28;21070;-76
2021/12/27 11:57:47;;;;;;;125.40;42.83;;;-7.90;99.90;;;;;;5107200;28;20027;-76
2021/12/27 12:00:23;;;;;;;66.73;25.17;;;-7.80;99.90;;;;;;5095132;28;20477;-76
2021/12/27 12:02:51;;;;;;;138.20;45.87;;;-8.00;99.90;;;;;;5092898;28;20023;-76
2021/12/27 12:05:45;;;;;;;287.87;78.33;;;-7.90;99.90;;;;;;5098360;28;20107;-76
2021/12/27 12:08:19;;;;;;;197.03;59.13;;;-7.90;99.90;;;;;;5095846;28;20028;-76
2021/12/27 12:11:03;;;;;;;157.80;50.60;;;-8.00;99.90;;;;;;5095456;28;20385;-76
2021/12/27 12:13:39;;;;;;;535.57;149.77;;;-8.00;99.90;;;;;;5090359;28;20028;-75
2021/12/27 12:16:07;;;;;;;447.70;117.03;;;-8.00;99.90;;;;;;5105517;28;20434;-76
2021/12/27 12:18:37;;;;;;;355.03;100.27;;;-8.10;99.90;;;;;;5091235;28;20504;-76
2021/12/27 12:21:04;;;;;;;229.97;66.03;;;-8.10;99.90;;;;;;5107046;28;20029;-76
2021/12/27 12:23:33;;;;;;;175.00;54.23;;;-8.10;99.90;;;;;;5096868;28;20027;-76
2021/12/27 12:26:01;;;;;;;136.63;42.03;;;-8.10;99.90;;;;;;5089557;28;20028;-76
2021/12/27 12:28:28;;;;;;;107.27;35.07;;;-8.20;99.90;;;;;;5089484;28;20024;-76
2021/12/27 12:30:54;;;;;;;115.80;34.37;;;-8.10;99.90;;;;;;5090023;28;20035;-75